Time,TemperatureF,DewpointF,PressureIn,WindDirection,WindDirectionDegrees,WindSpeedMPH,WindSpeedGustMPH,Humidity,HourlyPrecipIn,Conditions,Clouds,dailyrainin,SoftwareType,DateUTC
2013-01-01 00:01:00,30.2,28.4,30.24,NW,315,0.0,0.0,93,0.00,,,0.00,VWS V14.01,2013-01-01 08:01:00,
2013-01-01 00:06:00,30.0,28.2,30.24,NW,315,0.0,0.0,93,0.00,,,0.00,VWS V14.01,2013-01-01 08:06:00,
2013-01-01 00:11:00,30.0,28.2,30.24,NW,315,0.0,0.0,93,0.00,,,0.00,VWS V14.01,2013-01-01 08:11:00,
2013-01-01 00:16:00,30.0,28.2,30.24,NW,315,0.0,0.0,93,0.00,,,0.00,VWS V14.01,2013-01-01 08:16:00,
2013-01-01 00:21:00,30.0,28.2,30.24,NW,315,0.0,0.0,93,0.00,,,0.00,VWS V14.01,2013-01-01 08:21:00,
2013-01-01 00:26:00,30.0,28.2,30.24,SW,225,0.0,0.0,93,0.00,,,0.00,VWS V14.01,2013-01-01 08:26:00,
2013-01-01 00:31:00,29.8,28.1,30.24,SW,225,0.0,0.0,93,0.00,,,0.00,VWS V14.01,2013-01-01 08:31:00,
2013-01-01 00:36:00,29.7,27.9,30.24,SW,225,0.0,0.0,93,0.00,,,0.00,VWS V14.01,2013-01-01 08:36:00,
2013-01-01 00:41:00,29.7,27.9,30.24,SE,135,0.0,0.0,93,0.00,,,0.00,VWS V14.01,2013-01-01 08:41:00,
2013-01-01 00:46:00,29.7,27.9,30.24,NW,315,0.0,0.0,93,0.00,,,0.00,VWS V14.01,2013-01-01 08:46:00,
2013-01-01 00:51:00,29.7,27.9,30.24,NW,315,0.0,0.0,93,0.00,,,0.00,VWS V14.01,2013-01-01 08:51:00,
2013-01-01 00:56:00,29.5,27.7,30.24,NW,315,0.0,0.0,93,0.00,,,0.00,VWS V14.01,2013-01-01 08:56:00,
2013-01-01 01:01:00,29.5,27.7,30.24,NW,315,0.0,0.0,93,0.00,,,0.00,VWS V14.01,2013-01-01 09:01:00,
2013-01-01 01:06:00,29.3,27.5,30.24,NW,315,0.0,0.0,93,0.00,,,0.00,VWS V14.01,2013-01-01 09:06:00,
2013-01-01 01:11:00,29.1,27.1,30.24,NW,315,0.0,0.0,92,0.00,,,0.00,VWS V14.01,2013-01-01 09:11:00,
2013-01-01 01:16:00,29.1,27.4,30.24,NW,315,0.0,0.0,93,0.00,,,0.00,VWS V14.01,2013-01-01 09:16:00,
2013-01-01 01:21:00,29.1,27.4,30.24,SW,225,0.0,0.0,93,0.00,,,0.00,VWS V14.01,2013-01-01 09:21:00,
2013-01-01 01:26:00,29.1,27.4,30.24,SE,135,0.0,0.0,93,0.00,,,0.00,VWS V14.01,2013-01-01 09:26:00,
2013-01-01 01:31:00,29.1,27.4,30.24,NW,315,0.0,0.0,93,0.00,,,0.00,VWS V14.01,2013-01-01 09:31:00,
2013-01-01 01:36:00,28.9,27.2,30.24,NW,315,0.0,0.0,93,0.00,,,0.00,VWS V14.01,2013-01-01 09:36:00,
2013-01-01 01:41:00,28.9,27.2,30.24,NW,315,0.0,0.0,93,0.00,,,0.00,VWS V14.01,2013-01-01 09:41:00,
2013-01-01 01:46:00,28.9,27.2,30.24,SE,135,0.0,0.0,93,0.00,,,0.00,VWS V14.01,2013-01-01 09:46:00,
2013-01-01 01:51:00,28.8,27.0,30.24,SE,135,0.0,0.0,93,0.00,,,0.00,VWS V14.01,2013-01-01 09:51:00,
2013-01-01 01:56:00,28.8,27.0,30.24,NE,45,0.0,0.0,93,0.00,,,0.00,VWS V14.01,2013-01-01 09:56:00,
2013-01-01 02:01:00,28.8,27.0,30.24,North,0,1.8,1.8,93,0.00,,,0.00,VWS V14.01,2013-01-01 10:01:00,
2013-01-01 02:06:00,29.1,27.4,30.24,NE,45,4.4,4.4,93,0.00,,,0.00,VWS V14.01,2013-01-01 10:06:00,
2013-01-01 02:11:00,29.7,28.1,30.24,SW,225,0.0,0.0,94,0.00,,,0.00,VWS V14.01,2013-01-01 10:11:00,
2013-01-01 02:16:00,29.5,28.0,30.24,SE,135,0.0,0.0,94,0.00,,,0.00,VWS V14.01,2013-01-01 10:16:00,
2013-01-01 02:21:00,29.5,28.0,30.24,SE,135,0.0,0.0,94,0.00,,,0.00,VWS V14.01,2013-01-01 10:21:00,
2013-01-01 02:26:00,29.5,28.0,30.24,SW,225,0.0,0.0,94,0.00,,,0.00,VWS V14.01,2013-01-01 10:26:00,
2013-01-01 02:31:00,29.5,28.0,30.27,SW,225,0.0,0.0,94,0.00,,,0.00,VWS V14.01,2013-01-01 10:31:00,
2013-01-01 02:36:00,29.7,28.1,30.27,South,180,0.0,0.0,94,0.00,,,0.00,VWS V14.01,2013-01-01 10:36:00,
2013-01-01 02:41:00,30.0,28.5,30.27,South,180,0.0,0.0,94,0.00,,,0.00,VWS V14.01,2013-01-01 10:41:00,
2013-01-01 02:46:00,30.2,28.9,30.27,South,180,0.0,0.0,95,0.00,,,0.00,VWS V14.01,2013-01-01 10:46:00,
2013-01-01 02:51:00,30.2,28.9,30.27,South,180,0.0,0.0,95,0.00,,,0.00,VWS V14.01,2013-01-01 10:51:00,
2013-01-01 02:56:00,30.6,29.0,30.27,NE,45,0.0,0.0,94,0.00,,,0.00,VWS V14.01,2013-01-01 10:56:00,
2013-01-01 03:01:00,30.7,29.5,30.27,SE,135,0.0,0.0,95,0.00,,,0.00,VWS V14.01,2013-01-01 11:01:00,
2013-01-01 03:06:00,30.9,29.7,30.27,NW,315,0.0,0.0,95,0.00,,,0.00,VWS V14.01,2013-01-01 11:06:00,
2013-01-01 03:11:00,31.1,29.8,30.27,NW,315,0.0,0.0,95,0.00,,,0.00,VWS V14.01,2013-01-01 11:11:00,
2013-01-01 03:16:00,31.3,30.0,30.27,SE,135,0.0,0.0,95,0.00,,,0.00,VWS V14.01,2013-01-01 11:16:00,
2013-01-01 03:21:00,31.3,30.0,30.27,SE,135,0.0,0.0,95,0.00,,,0.00,VWS V14.01,2013-01-01 11:21:00,
2013-01-01 03:26:00,31.5,30.2,30.27,South,180,0.0,0.0,95,0.00,,,0.00,VWS V14.01,2013-01-01 11:26:00,
2013-01-01 03:31:00,31.5,30.2,30.27,South,180,0.0,0.0,95,0.00,,,0.00,VWS V14.01,2013-01-01 11:31:00,
2013-01-01 03:36:00,31.6,30.4,30.27,South,180,0.0,0.0,95,0.00,,,0.00,VWS V14.01,2013-01-01 11:36:00,
2013-01-01 03:41:00,31.8,30.5,30.27,South,180,0.0,0.0,95,0.00,,,0.00,VWS V14.01,2013-01-01 11:41:00,
2013-01-01 03:46:00,31.8,30.5,30.27,South,180,0.0,0.0,95,0.00,,,0.00,VWS V14.01,2013-01-01 11:46:00,
2013-01-01 03:51:00,32.0,30.7,30.27,South,180,0.0,0.0,95,0.00,,,0.00,VWS V14.01,2013-01-01 11:51:00,
2013-01-01 03:56:00,32.2,30.9,30.27,South,180,0.0,0.0,95,0.00,,,0.00,VWS V14.01,2013-01-01 11:56:00,
2013-01-01 04:01:00,32.2,30.9,30.27,SE,135,0.0,0.0,95,0.00,,,0.00,VWS V14.01,2013-01-01 12:01:00,
2013-01-01 04:06:00,32.4,31.1,30.27,SE,135,0.0,0.0,95,0.00,,,0.00,VWS V14.01,2013-01-01 12:06:00,
2013-01-01 04:11:00,32.4,31.1,30.27,SE,135,0.0,0.0,95,0.00,,,0.00,VWS V14.01,2013-01-01 12:11:00,
2013-01-01 04:16:00,32.4,31.1,30.27,SE,135,0.0,0.0,95,0.00,,,0.00,VWS V14.01,2013-01-01 12:16:00,
2013-01-01 04:21:00,32.4,31.1,30.27,NW,315,0.0,0.0,95,0.00,,,0.00,VWS V14.01,2013-01-01 12:21:00,
2013-01-01 04:26:00,32.4,31.1,30.27,NW,315,0.0,0.0,95,0.00,,,0.00,VWS V14.01,2013-01-01 12:26:00,
2013-01-01 04:31:00,32.5,31.3,30.24,NE,45,5.0,5.0,95,0.00,,,0.00,VWS V14.01,2013-01-01 12:31:00,
2013-01-01 04:36:00,32.5,31.3,30.24,NE,45,1.8,1.8,95,0.00,,,0.00,VWS V14.01,2013-01-01 12:36:00,
2013-01-01 04:41:00,32.5,31.3,30.24,NE,45,0.0,0.0,95,0.00,,,0.00,VWS V14.01,2013-01-01 12:41:00,
2013-01-01 04:46:00,32.5,31.0,30.24,NE,45,3.2,3.2,94,0.00,,,0.00,VWS V14.01,2013-01-01 12:46:00,
2013-01-01 04:51:00,32.7,31.2,30.24,NE,45,4.4,4.4,94,0.00,,,0.00,VWS V14.01,2013-01-01 12:51:00,
2013-01-01 04:56:00,32.7,31.2,30.24,NE,45,3.5,3.5,94,0.00,,,0.00,VWS V14.01,2013-01-01 12:56:00,
2013-01-01 05:01:00,32.5,31.0,30.24,NE,45,4.7,4.7,94,0.00,,,0.00,VWS V14.01,2013-01-01 13:01:00,
2013-01-01 05:06:00,32.5,30.7,30.24,NE,45,5.0,5.0,93,0.00,,,0.00,VWS V14.01,2013-01-01 13:06:00,
2013-01-01 05:11:00,32.5,30.7,30.24,NE,45,3.2,3.2,93,0.00,,,0.00,VWS V14.01,2013-01-01 13:11:00,
2013-01-01 05:16:00,32.4,30.6,30.24,North,0,4.4,4.4,93,0.00,,,0.00,VWS V14.01,2013-01-01 13:16:00,
2013-01-01 05:21:00,32.2,30.4,30.24,NE,45,3.2,3.2,93,0.00,,,0.00,VWS V14.01,2013-01-01 13:21:00,
2013-01-01 05:26:00,32.2,30.4,30.24,NE,45,1.8,1.8,93,0.00,,,0.00,VWS V14.01,2013-01-01 13:26:00,
2013-01-01 05:31:00,32.0,30.2,30.24,NE,45,5.3,5.3,93,0.00,,,0.00,VWS V14.01,2013-01-01 13:31:00,
2013-01-01 05:36:00,32.2,30.4,30.24,NE,45,4.7,4.7,93,0.00,,,0.00,VWS V14.01,2013-01-01 13:36:00,
2013-01-01 05:41:00,32.2,30.4,30.24,NW,315,2.6,2.6,93,0.00,,,0.00,VWS V14.01,2013-01-01 13:41:00,
2013-01-01 05:46:00,32.2,30.4,30.24,SW,225,0.0,0.0,93,0.00,,,0.00,VWS V14.01,2013-01-01 13:46:00,
2013-01-01 05:51:00,32.2,30.4,30.24,NE,45,1.5,1.5,93,0.00,,,0.00,VWS V14.01,2013-01-01 13:51:00,
2013-01-01 05:56:00,32.4,30.6,30.24,North,0,3.8,3.8,93,0.00,,,0.00,VWS V14.01,2013-01-01 13:56:00,
2013-01-01 06:01:00,32.4,30.6,30.24,North,0,3.5,3.5,93,0.00,,,0.00,VWS V14.01,2013-01-01 14:01:00,
2013-01-01 06:06:00,32.2,30.4,30.24,SW,225,0.0,0.0,93,0.00,,,0.00,VWS V14.01,2013-01-01 14:06:00,
2013-01-01 06:11:00,31.8,30.0,30.24,SE,135,0.0,0.0,93,0.00,,,0.00,VWS V14.01,2013-01-01 14:11:00,
2013-01-01 06:16:00,31.6,29.9,30.24,NW,315,0.0,0.0,93,0.00,,,0.00,VWS V14.01,2013-01-01 14:16:00,
2013-01-01 06:21:00,31.5,29.4,30.24,NW,315,0.0,0.0,92,0.00,,,0.00,VWS V14.01,2013-01-01 14:21:00,
2013-01-01 06:26:00,31.1,29.0,30.24,North,0,0.0,0.0,92,0.00,,,0.00,VWS V14.01,2013-01-01 14:26:00,
2013-01-01 06:31:00,31.1,29.0,30.24,NW,315,0.0,0.0,92,0.00,,,0.00,VWS V14.01,2013-01-01 14:31:00,
2013-01-01 06:36:00,30.7,28.7,30.24,NW,315,0.0,0.0,92,0.00,,,0.00,VWS V14.01,2013-01-01 14:36:00,
2013-01-01 06:41:00,30.6,28.8,30.24,North,0,0.0,0.0,93,0.00,,,0.00,VWS V14.01,2013-01-01 14:41:00,
2013-01-01 06:46:00,30.4,28.6,30.24,NE,45,0.0,0.0,93,0.00,,,0.00,VWS V14.01,2013-01-01 14:46:00,
2013-01-01 06:51:00,30.2,28.4,30.24,NW,315,0.0,0.0,93,0.00,,,0.00,VWS V14.01,2013-01-01 14:51:00,
2013-01-01 06:56:00,30.0,28.2,30.24,NW,315,0.0,0.0,93,0.00,,,0.00,VWS V14.01,2013-01-01 14:56:00,
2013-01-01 07:01:00,29.8,28.1,30.24,NW,315,0.0,0.0,93,0.00,,,0.00,VWS V14.01,2013-01-01 15:01:00,
2013-01-01 07:06:00,29.7,27.9,30.24,NW,315,0.0,0.0,93,0.00,,,0.00,VWS V14.01,2013-01-01 15:06:00,
2013-01-01 07:11:00,29.5,27.7,30.24,NW,315,0.0,0.0,93,0.00,,,0.00,VWS V14.01,2013-01-01 15:11:00,
2013-01-01 07:16:00,29.3,27.5,30.24,NW,315,0.0,0.0,93,0.00,,,0.00,VWS V14.01,2013-01-01 15:16:00,
2013-01-01 07:21:00,29.1,27.4,30.24,NE,45,0.0,0.0,93,0.00,,,0.00,VWS V14.01,2013-01-01 15:21:00,
2013-01-01 07:26:00,29.3,27.5,30.24,SE,135,0.0,0.0,93,0.00,,,0.00,VWS V14.01,2013-01-01 15:26:00,
2013-01-01 07:31:00,29.1,27.4,30.24,SW,225,0.0,0.0,93,0.00,,,0.00,VWS V14.01,2013-01-01 15:31:00,
2013-01-01 07:36:00,28.9,27.2,30.24,NW,315,0.0,0.0,93,0.00,,,0.00,VWS V14.01,2013-01-01 15:36:00,
2013-01-01 07:41:00,28.9,27.4,30.24,NW,315,0.0,0.0,94,0.00,,,0.00,VWS V14.01,2013-01-01 15:41:00,
2013-01-01 07:46:00,28.9,27.4,30.24,NW,315,0.0,0.0,94,0.00,,,0.00,VWS V14.01,2013-01-01 15:46:00,
2013-01-01 07:51:00,28.9,27.4,30.24,NW,315,0.0,0.0,94,0.00,,,0.00,VWS V14.01,2013-01-01 15:51:00,
2013-01-01 07:56:00,28.9,27.4,30.24,NW,315,0.0,0.0,94,0.00,,,0.00,VWS V14.01,2013-01-01 15:56:00,
2013-01-01 08:01:00,29.1,27.6,30.24,NW,315,0.0,0.0,94,0.00,,,0.00,VWS V14.01,2013-01-01 16:01:00,
2013-01-01 08:06:00,29.3,28.0,30.24,SW,225,0.0,0.0,95,0.00,,,0.00,VWS V14.01,2013-01-01 16:06:00,
2013-01-01 08:11:00,29.5,28.2,30.24,South,180,0.0,0.0,95,0.00,,,0.00,VWS V14.01,2013-01-01 16:11:00,
2013-01-01 08:16:00,29.7,28.4,30.24,South,180,0.0,0.0,95,0.00,,,0.00,VWS V14.01,2013-01-01 16:16:00,
2013-01-01 08:21:00,29.7,28.4,30.24,SE,135,0.0,0.0,95,0.00,,,0.00,VWS V14.01,2013-01-01 16:21:00,
2013-01-01 08:26:00,29.8,28.6,30.24,South,180,0.0,0.0,95,0.00,,,0.00,VWS V14.01,2013-01-01 16:26:00,
2013-01-01 08:31:00,30.2,28.9,30.24,NE,45,3.5,3.5,95,0.00,,,0.00,VWS V14.01,2013-01-01 16:31:00,
2013-01-01 08:36:00,30.7,29.5,30.24,NE,45,0.0,0.0,95,0.00,,,0.00,VWS V14.01,2013-01-01 16:36:00,
2013-01-01 08:41:00,31.1,30.1,30.24,NE,45,1.2,1.2,96,0.00,,,0.00,VWS V14.01,2013-01-01 16:41:00,
2013-01-01 08:46:00,31.8,30.8,30.24,NE,45,0.0,0.0,96,0.00,,,0.00,VWS V14.01,2013-01-01 16:46:00,
2013-01-01 08:51:00,32.0,31.0,30.24,West,270,0.0,0.0,96,0.00,,,0.00,VWS V14.01,2013-01-01 16:51:00,
2013-01-01 08:56:00,32.2,31.2,30.24,NE,45,0.0,0.0,96,0.00,,,0.00,VWS V14.01,2013-01-01 16:56:00,
2013-01-01 09:01:00,32.7,31.7,30.24,NE,45,0.0,0.0,96,0.00,,,21.16,VWS V14.01,2013-01-01 17:01:00,
2013-01-01 09:06:00,33.1,32.3,30.24,NE,45,3.8,3.8,97,0.00,,,0.00,VWS V14.01,2013-01-01 17:06:00,
2013-01-01 09:11:00,33.8,32.8,30.24,South,180,0.0,0.0,96,0.00,,,0.00,VWS V14.01,2013-01-01 17:11:00,
2013-01-01 09:16:00,34.3,33.6,30.24,NE,45,1.2,1.2,97,0.00,,,0.00,VWS V14.01,2013-01-01 17:16:00,
2013-01-01 09:21:00,34.9,34.1,30.24,SE,135,2.0,2.0,97,0.00,,,0.00,VWS V14.01,2013-01-01 17:21:00,
2013-01-01 09:26:00,35.6,34.6,30.24,SE,135,3.2,3.2,96,0.00,,,0.00,VWS V14.01,2013-01-01 17:26:00,
2013-01-01 09:30:00,36.3,35.5,30.24,SE,135,4.7,4.7,97,0.00,,,0.00,VWS V14.01,2013-01-01 17:30:00,
2013-01-01 09:35:00,37.2,36.5,30.24,SE,135,3.2,3.2,97,0.00,,,0.00,VWS V14.01,2013-01-01 17:35:00,
2013-01-01 09:40:00,37.9,36.9,30.24,NW,315,0.0,0.0,96,0.00,,,0.00,VWS V14.01,2013-01-01 17:40:00,
2013-01-01 09:45:00,38.3,37.0,30.24,SW,225,0.0,0.0,95,0.00,,,0.00,VWS V14.01,2013-01-01 17:45:00,
2013-01-01 09:50:00,38.3,36.7,30.24,South,180,0.0,0.0,94,0.00,,,0.00,VWS V14.01,2013-01-01 17:50:00,
2013-01-01 09:55:00,38.1,36.3,30.24,SW,225,0.0,0.0,93,0.00,,,0.00,VWS V14.01,2013-01-01 17:55:00,
2013-01-01 10:00:00,38.3,36.5,30.27,North,0,0.0,0.0,93,0.00,,,0.00,VWS V14.01,2013-01-01 18:00:00,
2013-01-01 10:05:00,38.7,36.8,30.27,NE,45,2.0,2.0,93,0.00,,,0.00,VWS V14.01,2013-01-01 18:05:00,
2013-01-01 10:10:00,39.0,36.9,30.27,NE,45,0.0,0.0,92,0.00,,,0.00,VWS V14.01,2013-01-01 18:10:00,
2013-01-01 10:15:00,39.4,37.0,30.27,NW,315,0.0,0.0,91,0.00,,,0.00,VWS V14.01,2013-01-01 18:15:00,
2013-01-01 10:20:00,39.7,37.3,30.27,SW,225,4.1,4.1,91,0.00,,,0.00,VWS V14.01,2013-01-01 18:20:00,
2013-01-01 10:25:00,40.3,37.3,30.27,North,0,2.9,2.9,89,0.00,,,21.16,VWS V14.01,2013-01-01 18:25:00,
2013-01-01 10:30:00,41.0,37.4,30.27,North,0,5.5,5.5,87,0.00,,,0.00,VWS V14.01,2013-01-01 18:30:00,
2013-01-01 10:35:00,41.7,37.5,30.27,NW,315,5.3,5.3,85,0.00,,,0.00,VWS V14.01,2013-01-01 18:35:00,
2013-01-01 10:40:00,42.4,37.7,30.27,NW,315,5.3,5.3,83,0.00,,,0.00,VWS V14.01,2013-01-01 18:40:00,
2013-01-01 10:45:00,43.0,37.9,30.24,NW,315,3.5,3.5,82,0.00,,,0.00,VWS V14.01,2013-01-01 18:45:00,
2013-01-01 10:50:00,43.5,37.5,30.24,NW,315,6.4,6.4,79,0.00,,,0.00,VWS V14.01,2013-01-01 18:50:00,
2013-01-01 10:55:00,43.7,36.6,30.24,NW,315,5.3,5.3,76,0.00,,,0.00,VWS V14.01,2013-01-01 18:55:00,
2013-01-01 11:00:00,44.1,36.7,30.24,NW,315,7.6,7.6,75,0.00,,,0.00,VWS V14.01,2013-01-01 19:00:00,
2013-01-01 11:05:00,44.1,36.3,30.24,NW,315,5.3,5.3,74,0.00,,,0.00,VWS V14.01,2013-01-01 19:05:00,
2013-01-01 11:10:00,44.1,36.3,30.24,SW,225,3.8,3.8,74,0.00,,,0.00,VWS V14.01,2013-01-01 19:10:00,
2013-01-01 11:15:00,44.1,36.3,30.27,SW,225,4.1,4.1,74,0.00,,,0.00,VWS V14.01,2013-01-01 19:15:00,
2013-01-01 11:20:00,44.1,35.6,30.27,NW,315,4.4,4.4,72,0.00,,,0.00,VWS V14.01,2013-01-01 19:20:00,
2013-01-01 11:25:00,44.4,36.3,30.27,SW,225,5.3,5.3,73,0.00,,,0.00,VWS V14.01,2013-01-01 19:25:00,
2013-01-01 11:30:00,44.6,35.8,30.27,NW,315,7.6,7.6,71,0.00,,,0.00,VWS V14.01,2013-01-01 19:30:00,
2013-01-01 11:35:00,44.8,36.0,30.27,SW,225,3.2,3.2,71,0.00,,,0.00,VWS V14.01,2013-01-01 19:35:00,
2013-01-01 11:40:00,45.1,36.3,30.27,NW,315,4.1,4.1,71,0.00,,,21.16,VWS V14.01,2013-01-01 19:40:00,
2013-01-01 11:45:00,45.5,36.7,30.30,North,0,5.5,5.5,71,0.00,,,0.00,VWS V14.01,2013-01-01 19:45:00,
2013-01-01 11:50:00,45.9,36.6,30.30,North,0,4.1,4.1,70,0.00,,,0.00,VWS V14.01,2013-01-01 19:50:00,
2013-01-01 11:55:00,46.2,36.6,30.30,North,0,3.8,3.8,69,0.00,,,21.16,VWS V14.01,2013-01-01 19:55:00,
2013-01-01 12:00:00,46.2,37.0,30.27,SW,225,4.1,4.1,70,0.00,,,0.00,VWS V14.01,2013-01-01 20:00:00,
2013-01-01 12:05:00,46.4,37.2,30.27,SW,225,7.0,7.0,70,0.00,,,0.00,VWS V14.01,2013-01-01 20:05:00,
2013-01-01 12:10:00,46.8,37.9,30.27,NW,315,7.9,7.9,71,0.00,,,0.00,VWS V14.01,2013-01-01 20:10:00,
2013-01-01 12:15:00,46.9,38.4,30.27,SW,225,3.5,3.5,72,0.00,,,0.00,VWS V14.01,2013-01-01 20:15:00,
2013-01-01 12:20:00,47.3,38.0,30.27,North,0,3.8,3.8,70,0.00,,,0.00,VWS V14.01,2013-01-01 20:20:00,
2013-01-01 12:25:00,47.5,37.8,30.27,NW,315,6.4,6.4,69,0.00,,,0.00,VWS V14.01,2013-01-01 20:25:00,
2013-01-01 12:30:00,47.8,37.4,30.24,NW,315,1.8,1.8,67,0.00,,,0.00,VWS V14.01,2013-01-01 20:30:00,
2013-01-01 12:35:00,48.0,36.8,30.24,North,0,5.3,5.3,65,0.00,,,0.00,VWS V14.01,2013-01-01 20:35:00,
2013-01-01 12:40:00,47.8,35.5,30.24,NW,315,5.0,5.0,62,0.00,,,0.00,VWS V14.01,2013-01-01 20:40:00,
2013-01-01 12:45:00,48.0,35.2,30.27,NW,315,5.0,5.0,61,0.00,,,0.00,VWS V14.01,2013-01-01 20:45:00,
2013-01-01 12:50:00,48.2,35.0,30.27,North,0,5.5,5.5,60,0.00,,,0.00,VWS V14.01,2013-01-01 20:50:00,
2013-01-01 12:55:00,48.4,35.2,30.27,NW,315,7.0,7.0,60,0.00,,,0.00,VWS V14.01,2013-01-01 20:55:00,
2013-01-01 13:00:00,48.4,35.2,30.24,NW,315,3.8,3.8,60,0.00,,,0.00,VWS V14.01,2013-01-01 21:00:00,
2013-01-01 13:05:00,48.4,34.7,30.24,NE,45,5.0,5.0,59,0.00,,,0.00,VWS V14.01,2013-01-01 21:05:00,
2013-01-01 13:10:00,48.6,35.7,30.24,SW,225,4.4,4.4,61,0.00,,,0.00,VWS V14.01,2013-01-01 21:10:00,
2013-01-01 13:15:00,48.7,34.2,30.24,NW,315,10.2,10.2,57,0.00,,,0.00,VWS V14.01,2013-01-01 21:15:00,
2013-01-01 13:20:00,48.9,35.2,30.24,North,0,6.1,6.1,59,0.00,,,0.00,VWS V14.01,2013-01-01 21:20:00,
2013-01-01 13:25:00,48.9,34.8,30.24,North,0,5.3,5.3,58,0.00,,,0.00,VWS V14.01,2013-01-01 21:25:00,
2013-01-01 13:30:00,49.1,35.0,30.24,NW,315,7.6,7.6,58,0.00,,,0.00,VWS V14.01,2013-01-01 21:30:00,
2013-01-01 13:35:00,49.3,35.1,30.24,North,0,4.1,4.1,58,0.00,,,0.00,VWS V14.01,2013-01-01 21:35:00,
2013-01-01 13:40:00,49.6,35.5,30.24,NW,315,7.9,7.9,58,0.00,,,0.00,VWS V14.01,2013-01-01 21:40:00,
2013-01-01 13:45:00,49.6,35.5,30.24,NW,315,7.0,7.0,58,0.00,,,0.00,VWS V14.01,2013-01-01 21:45:00,
2013-01-01 13:50:00,49.8,34.8,30.24,NW,315,6.4,6.4,56,0.00,,,0.00,VWS V14.01,2013-01-01 21:50:00,
2013-01-01 13:55:00,49.8,33.9,30.24,NW,315,5.0,5.0,54,0.00,,,0.00,VWS V14.01,2013-01-01 21:55:00,
2013-01-01 14:00:00,49.8,34.3,30.24,NW,315,4.1,4.1,55,0.00,,,21.16,VWS V14.01,2013-01-01 22:00:00,
2013-01-01 14:05:00,50.2,34.7,30.24,NW,315,7.9,7.9,55,0.00,,,21.16,VWS V14.01,2013-01-01 22:05:00,
2013-01-01 14:10:00,50.4,34.4,30.24,NW,315,5.0,5.0,54,0.00,,,21.16,VWS V14.01,2013-01-01 22:10:00,
2013-01-01 14:15:00,50.5,34.5,30.24,NW,315,5.3,5.3,54,0.00,,,21.16,VWS V14.01,2013-01-01 22:15:00,
2013-01-01 14:20:00,50.2,33.2,30.24,NW,315,9.9,9.9,52,0.00,,,21.16,VWS V14.01,2013-01-01 22:20:00,
2013-01-01 14:25:00,50.2,33.2,30.24,NW,315,8.5,8.5,52,0.00,,,21.16,VWS V14.01,2013-01-01 22:25:00,
2013-01-01 14:30:00,50.4,33.9,30.24,SW,225,2.9,2.9,53,0.00,,,21.16,VWS V14.01,2013-01-01 22:30:00,
2013-01-01 14:35:00,50.2,33.7,30.24,NW,315,6.4,6.4,53,0.00,,,21.16,VWS V14.01,2013-01-01 22:35:00,
2013-01-01 14:40:00,50.0,33.1,30.24,NW,315,8.2,8.2,52,0.00,,,21.16,VWS V14.01,2013-01-01 22:40:00,
2013-01-01 14:45:00,50.2,33.2,30.24,NW,315,3.5,3.5,52,0.00,,,21.16,VWS V14.01,2013-01-01 22:45:00,
2013-01-01 14:50:00,50.2,32.8,30.24,NW,315,4.1,4.1,51,0.00,,,21.16,VWS V14.01,2013-01-01 22:50:00,
2013-01-01 14:55:00,50.0,32.6,30.24,NW,315,7.0,7.0,51,0.00,,,21.16,VWS V14.01,2013-01-01 22:55:00,
2013-01-01 15:00:00,50.0,32.6,30.24,North,0,0.0,0.0,51,0.00,,,21.16,VWS V14.01,2013-01-01 23:00:00,
2013-01-01 15:05:00,49.8,32.4,30.24,SW,225,5.5,5.5,51,0.00,,,21.16,VWS V14.01,2013-01-01 23:05:00,
2013-01-01 15:10:00,49.5,32.1,30.24,NW,315,4.7,4.7,51,0.00,,,21.16,VWS V14.01,2013-01-01 23:10:00,
2013-01-01 15:15:00,49.3,32.4,30.24,NW,315,5.0,5.0,52,0.00,,,21.16,VWS V14.01,2013-01-01 23:15:00,
2013-01-01 15:20:00,48.9,32.1,30.24,North,0,3.5,3.5,52,0.00,,,21.16,VWS V14.01,2013-01-01 23:20:00,
2013-01-01 15:25:00,48.7,31.9,30.24,SW,225,2.6,2.6,52,0.00,,,21.16,VWS V14.01,2013-01-01 23:25:00,
2013-01-01 15:30:00,48.6,31.8,30.24,NW,315,4.4,4.4,52,0.00,,,21.16,VWS V14.01,2013-01-01 23:30:00,
2013-01-01 15:35:00,48.2,31.4,30.24,NW,315,3.5,3.5,52,0.00,,,21.16,VWS V14.01,2013-01-01 23:35:00,
2013-01-01 15:40:00,48.0,31.2,30.24,NW,315,2.0,2.0,52,0.00,,,21.16,VWS V14.01,2013-01-01 23:40:00,
2013-01-01 15:45:00,47.8,31.1,30.24,NW,315,1.8,1.8,52,0.00,,,21.16,VWS V14.01,2013-01-01 23:45:00,
2013-01-01 15:50:00,47.8,31.1,30.24,SW,225,2.6,2.6,52,0.00,,,21.16,VWS V14.01,2013-01-01 23:50:00,
2013-01-01 15:55:00,47.5,30.8,30.24,SW,225,0.0,0.0,52,0.00,,,21.16,VWS V14.01,2013-01-01 23:55:00,
2013-01-01 16:00:00,47.3,30.6,30.24,SW,225,0.0,0.0,52,0.00,,,21.16,VWS V14.01,2013-01-02 00:00:00,
2013-01-01 16:05:00,46.9,30.2,30.24,SW,225,2.9,2.9,52,0.00,,,21.16,VWS V14.01,2013-01-02 00:05:00,
2013-01-01 16:10:00,46.4,29.8,30.24,SW,225,0.0,0.0,52,0.00,,,21.16,VWS V14.01,2013-01-02 00:10:00,
2013-01-01 16:15:00,46.0,29.9,30.21,SW,225,3.5,3.5,53,0.00,,,21.16,VWS V14.01,2013-01-02 00:15:00,
2013-01-01 16:20:00,45.5,29.4,30.21,SW,225,0.0,0.0,53,0.00,,,21.16,VWS V14.01,2013-01-02 00:20:00,
2013-01-01 16:25:00,45.0,28.9,30.21,NW,315,0.0,0.0,53,0.00,,,21.16,VWS V14.01,2013-01-02 00:25:00,
2013-01-01 16:30:00,44.6,28.5,30.21,NW,315,0.0,0.0,53,0.00,,,21.16,VWS V14.01,2013-01-02 00:30:00,
2013-01-01 16:35:00,44.1,28.5,30.21,NW,315,0.0,0.0,54,0.00,,,21.16,VWS V14.01,2013-01-02 00:35:00,
2013-01-01 16:40:00,43.3,27.8,30.21,NW,315,0.0,0.0,54,0.00,,,21.16,VWS V14.01,2013-01-02 00:40:00,
2013-01-01 16:45:00,42.8,27.8,30.21,NW,315,0.0,0.0,55,0.00,,,21.16,VWS V14.01,2013-01-02 00:45:00,
2013-01-01 16:50:00,42.1,27.5,30.21,NW,315,0.0,0.0,56,0.00,,,21.16,VWS V14.01,2013-01-02 00:50:00,
2013-01-01 16:55:00,41.5,27.0,30.21,NW,315,0.0,0.0,56,0.00,,,21.16,VWS V14.01,2013-01-02 00:55:00,
2013-01-01 17:00:00,41.0,27.0,30.21,NW,315,0.0,0.0,57,0.00,,,21.16,VWS V14.01,2013-01-02 01:00:00,
2013-01-01 17:05:00,40.3,27.1,30.21,NW,315,0.0,0.0,59,0.00,,,21.16,VWS V14.01,2013-01-02 01:05:00,
2013-01-01 17:10:00,39.7,27.4,30.21,NE,45,0.0,0.0,61,0.00,,,21.16,VWS V14.01,2013-01-02 01:10:00,
2013-01-01 17:15:00,39.4,27.9,30.21,NE,45,0.0,0.0,63,0.00,,,21.16,VWS V14.01,2013-01-02 01:15:00,
2013-01-01 17:20:00,38.8,27.7,30.21,NW,315,0.0,0.0,64,0.00,,,21.16,VWS V14.01,2013-01-02 01:20:00,
2013-01-01 17:25:00,38.3,28.0,30.21,West,270,0.0,0.0,66,0.00,,,21.16,VWS V14.01,2013-01-02 01:25:00,
2013-01-01 17:30:00,37.9,27.6,30.21,West,270,0.0,0.0,66,0.00,,,21.16,VWS V14.01,2013-01-02 01:30:00,
2013-01-01 17:35:00,37.4,27.5,30.21,West,270,0.0,0.0,67,0.00,,,21.16,VWS V14.01,2013-01-02 01:35:00,
2013-01-01 17:40:00,37.0,27.8,30.21,NE,45,0.0,0.0,69,0.00,,,21.16,VWS V14.01,2013-01-02 01:40:00,
2013-01-01 17:45:00,36.7,27.8,30.21,NE,45,0.0,0.0,70,0.00,,,21.16,VWS V14.01,2013-01-02 01:45:00,
2013-01-01 17:50:00,36.3,27.8,30.21,North,0,0.0,0.0,71,0.00,,,21.16,VWS V14.01,2013-01-02 01:50:00,
2013-01-01 17:55:00,36.1,28.0,30.21,NW,315,0.0,0.0,72,0.00,,,21.16,VWS V14.01,2013-01-02 01:55:00,
2013-01-01 18:00:00,35.8,27.6,30.21,South,180,0.0,0.0,72,0.00,,,21.16,VWS V14.01,2013-01-02 02:00:00,
2013-01-01 18:05:00,35.8,28.0,30.21,NW,315,0.0,0.0,73,0.00,,,21.16,VWS V14.01,2013-01-02 02:05:00,
2013-01-01 18:10:00,35.2,27.8,30.21,NW,315,0.0,0.0,74,0.00,,,21.16,VWS V14.01,2013-01-02 02:10:00,
2013-01-01 18:15:00,35.1,27.6,30.24,NW,315,3.5,3.5,74,0.00,,,21.16,VWS V14.01,2013-01-02 02:15:00,
2013-01-01 18:20:00,34.9,27.8,30.24,North,0,0.0,0.0,75,0.00,,,21.16,VWS V14.01,2013-01-02 02:20:00,
2013-01-01 18:25:00,34.5,27.8,30.24,NW,315,0.0,0.0,76,0.00,,,21.16,VWS V14.01,2013-01-02 02:25:00,
2013-01-01 18:30:00,34.3,27.6,30.21,North,0,0.0,0.0,76,0.00,,,21.16,VWS V14.01,2013-01-02 02:30:00,
2013-01-01 18:35:00,34.2,27.7,30.21,North,0,0.0,0.0,77,0.00,,,21.16,VWS V14.01,2013-01-02 02:35:00,
2013-01-01 18:40:00,34.0,27.5,30.21,NW,315,0.0,0.0,77,0.00,,,21.16,VWS V14.01,2013-01-02 02:40:00,
2013-01-01 18:45:00,33.8,27.4,30.24,SW,225,3.2,3.2,77,0.00,,,21.16,VWS V14.01,2013-01-02 02:45:00,
2013-01-01 18:50:00,33.4,27.3,30.24,NW,315,1.2,1.2,78,0.00,,,21.16,VWS V14.01,2013-01-02 02:50:00,
2013-01-01 18:55:00,33.3,27.1,30.24,NW,315,0.0,0.0,78,0.00,,,21.16,VWS V14.01,2013-01-02 02:55:00,
2013-01-01 19:00:00,33.3,27.1,30.21,NW,315,0.0,0.0,78,0.00,,,21.16,VWS V14.01,2013-01-02 03:00:00,
2013-01-01 19:05:00,33.1,27.3,30.21,SE,135,0.0,0.0,79,0.00,,,21.16,VWS V14.01,2013-01-02 03:05:00,
2013-01-01 19:10:00,32.9,27.1,30.21,SW,225,0.0,0.0,79,0.00,,,21.16,VWS V14.01,2013-01-02 03:10:00,
2013-01-01 19:15:00,32.7,26.9,30.21,South,180,0.0,0.0,79,0.00,,,21.16,VWS V14.01,2013-01-02 03:15:00,
2013-01-01 19:20:00,32.5,26.8,30.21,SE,135,2.6,2.6,79,0.00,,,21.16,VWS V14.01,2013-01-02 03:20:00,
2013-01-01 19:25:00,32.7,27.2,30.21,SE,135,0.0,0.0,80,0.00,,,21.16,VWS V14.01,2013-01-02 03:25:00,
2013-01-01 19:30:00,32.5,27.1,30.21,South,180,0.0,0.0,80,0.00,,,21.16,VWS V14.01,2013-01-02 03:30:00,
2013-01-01 19:35:00,32.2,26.7,30.21,North,0,0.0,0.0,80,0.00,,,21.16,VWS V14.01,2013-01-02 03:35:00,
2013-01-01 19:40:00,32.2,26.7,30.21,West,270,0.0,0.0,80,0.00,,,21.16,VWS V14.01,2013-01-02 03:40:00,
2013-01-01 19:45:00,32.0,26.8,30.24,North,0,0.0,0.0,81,0.00,,,21.16,VWS V14.01,2013-01-02 03:45:00,
2013-01-01 19:50:00,31.8,26.7,30.24,NE,45,0.0,0.0,81,0.00,,,21.16,VWS V14.01,2013-01-02 03:50:00,
2013-01-01 19:55:00,31.6,26.5,30.24,NE,45,0.0,0.0,81,0.00,,,21.16,VWS V14.01,2013-01-02 03:55:00,
2013-01-01 20:00:00,31.5,26.6,30.24,North,0,0.0,0.0,82,0.00,,,21.16,VWS V14.01,2013-01-02 04:00:00,
2013-01-01 20:05:00,31.3,26.4,30.24,SW,225,0.0,0.0,82,0.00,,,21.16,VWS V14.01,2013-01-02 04:05:00,
2013-01-01 20:10:00,31.3,26.4,30.24,NW,315,0.0,0.0,82,0.00,,,21.16,VWS V14.01,2013-01-02 04:10:00,
2013-01-01 20:15:00,31.3,26.4,30.24,South,180,0.0,0.0,82,0.00,,,21.16,VWS V14.01,2013-01-02 04:15:00,
2013-01-01 20:20:00,31.1,26.5,30.24,South,180,0.0,0.0,83,0.00,,,21.16,VWS V14.01,2013-01-02 04:20:00,
2013-01-01 20:25:00,31.1,26.3,30.24,South,180,0.0,0.0,82,0.00,,,21.16,VWS V14.01,2013-01-02 04:25:00,
2013-01-01 20:30:00,30.9,26.1,30.24,South,180,0.0,0.0,82,0.00,,,21.16,VWS V14.01,2013-01-02 04:30:00,
2013-01-01 20:35:00,30.7,26.2,30.24,North,0,0.0,0.0,83,0.00,,,21.16,VWS V14.01,2013-01-02 04:35:00,
2013-01-01 20:40:00,30.6,26.0,30.24,NE,45,0.0,0.0,83,0.00,,,21.16,VWS V14.01,2013-01-02 04:40:00,
2013-01-01 20:45:00,30.4,25.9,30.24,North,0,0.0,0.0,83,0.00,,,21.16,VWS V14.01,2013-01-02 04:45:00,
2013-01-01 20:50:00,30.2,26.0,30.24,North,0,0.0,0.0,84,0.00,,,21.16,VWS V14.01,2013-01-02 04:50:00,
2013-01-01 20:55:00,30.0,25.8,30.24,North,0,0.0,0.0,84,0.00,,,21.16,VWS V14.01,2013-01-02 04:55:00,
2013-01-01 21:00:00,29.8,25.6,30.24,NW,315,0.0,0.0,84,0.00,,,21.16,VWS V14.01,2013-01-02 05:00:00,
2013-01-01 21:01:00,29.8,25.6,30.24,NW,315,0.0,0.0,84,0.00,,,21.16,VWS V14.01,2013-01-02 05:01:00,
2013-01-01 21:06:00,29.8,25.9,30.24,SW,225,0.0,0.0,85,0.00,,,21.16,VWS V14.01,2013-01-02 05:06:00,
2013-01-01 21:11:00,29.7,25.7,30.24,NW,315,0.0,0.0,85,0.00,,,21.16,VWS V14.01,2013-01-02 05:11:00,
2013-01-01 21:16:00,29.7,25.7,30.27,NE,45,3.5,3.5,85,0.00,,,21.16,VWS V14.01,2013-01-02 05:16:00,
2013-01-01 21:21:00,29.8,26.2,30.27,South,180,0.0,0.0,86,0.00,,,21.16,VWS V14.01,2013-01-02 05:21:00,
2013-01-01 21:26:00,30.0,26.4,30.27,South,180,0.0,0.0,86,0.00,,,21.16,VWS V14.01,2013-01-02 05:26:00,
2013-01-01 21:31:00,30.0,26.4,30.27,South,180,0.0,0.0,86,0.00,,,21.16,VWS V14.01,2013-01-02 05:31:00,
2013-01-01 21:36:00,30.2,26.5,30.27,SW,225,1.8,1.8,86,0.00,,,21.16,VWS V14.01,2013-01-02 05:36:00,
2013-01-01 21:41:00,30.2,26.5,30.27,SW,225,2.6,2.6,86,0.00,,,21.16,VWS V14.01,2013-01-02 05:41:00,
2013-01-01 21:46:00,30.2,26.5,30.27,SW,225,0.0,0.0,86,0.00,,,21.16,VWS V14.01,2013-01-02 05:46:00,
2013-01-01 21:51:00,30.2,26.8,30.27,South,180,0.0,0.0,87,0.00,,,21.16,VWS V14.01,2013-01-02 05:51:00,
2013-01-01 21:56:00,30.2,26.8,30.27,NW,315,0.0,0.0,87,0.00,,,21.16,VWS V14.01,2013-01-02 05:56:00,
2013-01-01 22:01:00,30.0,26.6,30.27,NW,315,0.0,0.0,87,0.00,,,21.16,VWS V14.01,2013-01-02 06:01:00,
2013-01-01 22:06:00,30.0,26.6,30.27,West,270,0.0,0.0,87,0.00,,,21.16,VWS V14.01,2013-01-02 06:06:00,
2013-01-01 22:11:00,29.8,26.5,30.27,NW,315,0.0,0.0,87,0.00,,,21.16,VWS V14.01,2013-01-02 06:11:00,
2013-01-01 22:16:00,29.8,26.5,30.27,NW,315,0.0,0.0,87,0.00,,,21.16,VWS V14.01,2013-01-02 06:16:00,
2013-01-01 22:21:00,29.7,26.3,30.27,NW,315,0.0,0.0,87,0.00,,,21.16,VWS V14.01,2013-01-02 06:21:00,
2013-01-01 22:26:00,29.5,26.1,30.27,NW,315,0.0,0.0,87,0.00,,,21.16,VWS V14.01,2013-01-02 06:26:00,
2013-01-01 22:31:00,29.5,26.1,30.27,NW,315,0.0,0.0,87,0.00,,,21.16,VWS V14.01,2013-01-02 06:31:00,
2013-01-01 22:36:00,29.3,25.9,30.27,North,0,0.0,0.0,87,0.00,,,21.16,VWS V14.01,2013-01-02 06:36:00,
2013-01-01 22:41:00,29.3,25.9,30.27,NE,45,0.0,0.0,87,0.00,,,21.16,VWS V14.01,2013-01-02 06:41:00,
2013-01-01 22:46:00,29.3,26.2,30.27,NE,45,0.0,0.0,88,0.00,,,21.16,VWS V14.01,2013-01-02 06:46:00,
2013-01-01 22:51:00,29.1,26.0,30.27,NE,45,0.0,0.0,88,0.00,,,21.16,VWS V14.01,2013-01-02 06:51:00,
2013-01-01 22:56:00,29.1,26.0,30.27,West,270,0.0,0.0,88,0.00,,,21.16,VWS V14.01,2013-01-02 06:56:00,
2013-01-01 23:01:00,29.3,26.2,30.30,South,180,0.0,0.0,88,0.00,,,21.16,VWS V14.01,2013-01-02 07:01:00,
2013-01-01 23:06:00,29.3,26.2,30.30,South,180,0.0,0.0,88,0.00,,,21.16,VWS V14.01,2013-01-02 07:06:00,
2013-01-01 23:11:00,29.3,26.5,30.30,West,270,0.0,0.0,89,0.00,,,21.16,VWS V14.01,2013-01-02 07:11:00,
2013-01-01 23:16:00,29.3,26.5,30.27,North,0,0.0,0.0,89,0.00,,,21.16,VWS V14.01,2013-01-02 07:16:00,
2013-01-01 23:21:00,29.1,26.3,30.27,NW,315,0.0,0.0,89,0.00,,,21.16,VWS V14.01,2013-01-02 07:21:00,
2013-01-01 23:26:00,29.1,26.3,30.27,SE,135,0.0,0.0,89,0.00,,,21.16,VWS V14.01,2013-01-02 07:26:00,
2013-01-01 23:31:00,29.1,26.3,30.27,SE,135,0.0,0.0,89,0.00,,,21.16,VWS V14.01,2013-01-02 07:31:00,
2013-01-01 23:36:00,28.9,26.1,30.27,SE,135,0.0,0.0,89,0.00,,,21.16,VWS V14.01,2013-01-02 07:36:00,
2013-01-01 23:41:00,28.9,26.1,30.27,North,0,0.0,0.0,89,0.00,,,21.16,VWS V14.01,2013-01-02 07:41:00,
2013-01-01 23:46:00,28.8,25.9,30.27,NW,315,0.0,0.0,89,0.00,,,21.16,VWS V14.01,2013-01-02 07:46:00,
2013-01-01 23:51:00,28.8,25.9,30.27,North,0,0.0,0.0,89,0.00,,,21.16,VWS V14.01,2013-01-02 07:51:00,
2013-01-01 23:56:00,28.9,26.1,30.27,NE,45,0.0,0.0,89,0.00,,,21.16,VWS V14.01,2013-01-02 07:56:00,